sensor_id;sensor_type;location;lat;lon;timestamp;pressure;altitude;pressure_sealevel;temperature
74043;BMP280;62384;53.600;10.040;2023-04-19T00:00:42;73400.81;;;7.01
74043;BMP280;62384;53.600;10.040;2023-04-19T00:03:08;73243.34;;;6.93
74043;BMP280;62384;53.600;10.040;2023-04-19T00:05:35;73280.81;;;7.03
74043;BMP280;62384;53.600;10.040;2023-04-19T00:08:05;73054.59;;;6.65
74043;BMP280;62384;53.600;10.040;2023-04-19T00:10:30;73163.56;;;6.56
74043;BMP280;62384;53.600;10.040;2023-04-19T00:12:56;72998.19;;;6.96
74043;BMP280;62384;53.600;10.040;2023-04-19T00:15:21;73101.78;;;6.69
74043;BMP280;62384;53.600;10.040;2023-04-19T00:17:46;72918.06;;;6.88
74043;BMP280;62384;53.600;10.040;2023-04-19T00:20:12;73122.31;;;6.93
74043;BMP280;62384;53.600;10.040;2023-04-19T00:22:38;73114.88;;;6.67
74043;BMP280;62384;53.600;10.040;2023-04-19T00:25:03;73111.00;;;6.88
74043;BMP280;62384;53.600;10.040;2023-04-19T00:27:28;73128.84;;;6.72
74043;BMP280;62384;53.600;10.040;2023-04-19T00:29:55;73138.88;;;6.84
74043;BMP280;62384;53.600;10.040;2023-04-19T00:32:21;73243.81;;;6.91
74043;BMP280;62384;53.600;10.040;2023-04-19T00:34:47;73254.72;;;6.74
74043;BMP280;62384;53.600;10.040;2023-04-19T00:37:12;73318.47;;;6.81
74043;BMP280;62384;53.600;10.040;2023-04-19T00:39:37;73347.91;;;6.89
74043;BMP280;62384;53.600;10.040;2023-04-19T00:42:03;73108.75;;;6.59
74043;BMP280;62384;53.600;10.040;2023-04-19T00:44:28;73339.44;;;6.89
74043;BMP280;62384;53.600;10.040;2023-04-19T00:46:55;73530.06;;;6.84
74043;BMP280;62384;53.600;10.040;2023-04-19T00:49:21;73425.28;;;6.82
74043;BMP280;62384;53.600;10.040;2023-04-19T00:51:46;73542.03;;;6.80
74043;BMP280;62384;53.600;10.040;2023-04-19T00:54:13;73475.88;;;6.78
74043;BMP280;62384;53.600;10.040;2023-04-19T00:56:39;73588.63;;;6.60
74043;BMP280;62384;53.600;10.040;2023-04-19T00:59:05;73648.50;;;6.74
74043;BMP280;62384;53.600;10.040;2023-04-19T01:01:30;73704.13;;;6.76
74043;BMP280;62384;53.600;10.040;2023-04-19T01:03:56;73694.13;;;6.77
74043;BMP280;62384;53.600;10.040;2023-04-19T01:06:24;73787.84;;;6.30
74043;BMP280;62384;53.600;10.040;2023-04-19T01:08:52;73802.38;;;6.74
74043;BMP280;62384;53.600;10.040;2023-04-19T01:11:18;73860.38;;;6.72
74043;BMP280;62384;53.600;10.040;2023-04-19T01:13:43;73787.63;;;6.75
74043;BMP280;62384;53.600;10.040;2023-04-19T01:16:08;73907.97;;;6.72
74043;BMP280;62384;53.600;10.040;2023-04-19T01:18:34;73934.38;;;6.62
74043;BMP280;62384;53.600;10.040;2023-04-19T01:21:02;73922.41;;;6.47
74043;BMP280;62384;53.600;10.040;2023-04-19T01:23:28;73968.59;;;6.41
74043;BMP280;62384;53.600;10.040;2023-04-19T01:26:13;73999.50;;;6.73
74043;BMP280;62384;53.600;10.040;2023-04-19T01:28:38;74009.06;;;6.56
74043;BMP280;62384;53.600;10.040;2023-04-19T01:31:03;73998.38;;;6.72
74043;BMP280;62384;53.600;10.040;2023-04-19T01:33:29;74079.75;;;6.62
74043;BMP280;62384;53.600;10.040;2023-04-19T01:35:54;74039.69;;;6.64
74043;BMP280;62384;53.600;10.040;2023-04-19T01:38:19;74066.19;;;6.38
74043;BMP280;62384;53.600;10.040;2023-04-19T01:40:45;74059.69;;;6.54
74043;BMP280;62384;53.600;10.040;2023-04-19T01:43:12;74022.00;;;6.60
74043;BMP280;62384;53.600;10.040;2023-04-19T01:45:39;74052.47;;;6.66
74043;BMP280;62384;53.600;10.040;2023-04-19T01:48:04;74075.72;;;6.66
74043;BMP280;62384;53.600;10.040;2023-04-19T01:50:30;73938.13;;;6.44
74043;BMP280;62384;53.600;10.040;2023-04-19T01:52:56;74058.59;;;6.62
74043;BMP280;62384;53.600;10.040;2023-04-19T01:55:21;74016.72;;;6.60
74043;BMP280;62384;53.600;10.040;2023-04-19T01:57:47;73872.34;;;6.68
74043;BMP280;62384;53.600;10.040;2023-04-19T02:00:12;73907.41;;;6.62
74043;BMP280;62384;53.600;10.040;2023-04-19T02:02:38;73803.38;;;6.63
74043;BMP280;62384;53.600;10.040;2023-04-19T02:05:06;73590.81;;;6.41
74043;BMP280;62384;53.600;10.040;2023-04-19T02:07:32;73541.69;;;6.51
74043;BMP280;62384;53.600;10.040;2023-04-19T02:09:57;73369.84;;;6.49
74043;BMP280;62384;53.600;10.040;2023-04-19T02:12:26;73238.19;;;6.47
74043;BMP280;62384;53.600;10.040;2023-04-19T02:14:59;73142.13;;;6.48
74043;BMP280;62384;53.600;10.040;2023-04-19T02:17:26;73091.94;;;6.48
74043;BMP280;62384;53.600;10.040;2023-04-19T02:19:52;73010.81;;;6.42
74043;BMP280;62384;53.600;10.040;2023-04-19T02:22:18;72944.25;;;6.41
74043;BMP280;62384;53.600;10.040;2023-04-19T02:24:48;72881.97;;;6.42
74043;BMP280;62384;53.600;10.040;2023-04-19T02:27:13;72722.34;;;6.39
74043;BMP280;62384;53.600;10.040;2023-04-19T02:29:38;72110.44;;;6.25
74043;BMP280;62384;53.600;10.040;2023-04-19T02:32:04;72699.38;;;6.32
74043;BMP280;62384;53.600;10.040;2023-04-19T02:34:31;72708.03;;;6.38
74043;BMP280;62384;53.600;10.040;2023-04-19T02:36:57;72553.19;;;6.19
74043;BMP280;62384;53.600;10.040;2023-04-19T02:39:22;72716.22;;;6.31
74043;BMP280;62384;53.600;10.040;2023-04-19T02:41:48;72695.66;;;6.31
74043;BMP280;62384;53.600;10.040;2023-04-19T02:44:14;72672.16;;;5.95
74043;BMP280;62384;53.600;10.040;2023-04-19T02:46:39;72539.47;;;6.18
74043;BMP280;62384;53.600;10.040;2023-04-19T02:49:04;72581.63;;;6.01
74043;BMP280;62384;53.600;10.040;2023-04-19T02:51:35;72534.72;;;6.19
74043;BMP280;62384;53.600;10.040;2023-04-19T02:54:01;72545.28;;;6.19
74043;BMP280;62384;53.600;10.040;2023-04-19T02:56:26;72562.00;;;5.69
74043;BMP280;62384;53.600;10.040;2023-04-19T02:58:52;72542.00;;;6.16
74043;BMP280;62384;53.600;10.040;2023-04-19T03:01:18;72674.53;;;6.16
74043;BMP280;62384;53.600;10.040;2023-04-19T03:03:43;72651.69;;;5.98
74043;BMP280;62384;53.600;10.040;2023-04-19T03:06:09;72709.13;;;6.09
74043;BMP280;62384;53.600;10.040;2023-04-19T03:08:34;72296.69;;;5.87
74043;BMP280;62384;53.600;10.040;2023-04-19T03:11:00;72803.25;;;5.87
74043;BMP280;62384;53.600;10.040;2023-04-19T03:13:25;72730.59;;;6.05
74043;BMP280;62384;53.600;10.040;2023-04-19T03:15:51;72718.34;;;5.74
74043;BMP280;62384;53.600;10.040;2023-04-19T03:18:16;72810.19;;;6.03
74043;BMP280;62384;53.600;10.040;2023-04-19T03:20:43;72845.72;;;5.80
74043;BMP280;62384;53.600;10.040;2023-04-19T03:23:08;72787.72;;;5.68
74043;BMP280;62384;53.600;10.040;2023-04-19T03:25:34;72860.50;;;5.93
74043;BMP280;62384;53.600;10.040;2023-04-19T03:27:59;72884.72;;;5.91
74043;BMP280;62384;53.600;10.040;2023-04-19T03:30:29;72827.00;;;5.87
74043;BMP280;62384;53.600;10.040;2023-04-19T03:32:54;72740.41;;;5.85
74043;BMP280;62384;53.600;10.040;2023-04-19T03:35:19;72736.00;;;5.81
74043;BMP280;62384;53.600;10.040;2023-04-19T03:37:46;72426.81;;;5.48
74043;BMP280;62384;53.600;10.040;2023-04-19T03:40:11;72710.09;;;5.79
74043;BMP280;62384;53.600;10.040;2023-04-19T03:42:37;72748.31;;;5.58
74043;BMP280;62384;53.600;10.040;2023-04-19T03:45:02;72771.50;;;5.57
74043;BMP280;62384;53.600;10.040;2023-04-19T03:47:31;72842.31;;;5.74
74043;BMP280;62384;53.600;10.040;2023-04-19T03:49:56;72838.81;;;5.78
74043;BMP280;62384;53.600;10.040;2023-04-19T03:52:21;72862.53;;;5.78
74043;BMP280;62384;53.600;10.040;2023-04-19T03:54:47;72829.97;;;5.55
74043;BMP280;62384;53.600;10.040;2023-04-19T03:57:15;72935.13;;;5.60
74043;BMP280;62384;53.600;10.040;2023-04-19T03:59:41;72882.41;;;5.48
74043;BMP280;62384;53.600;10.040;2023-04-19T04:02:06;72797.56;;;5.23
74043;BMP280;62384;53.600;10.040;2023-04-19T04:04:32;72864.81;;;5.44
74043;BMP280;62384;53.600;10.040;2023-04-19T04:06:58;72860.00;;;5.42
74043;BMP280;62384;53.600;10.040;2023-04-19T04:09:23;72598.09;;;5.46
74043;BMP280;62384;53.600;10.040;2023-04-19T04:11:48;72933.50;;;5.46
74043;BMP280;62384;53.600;10.040;2023-04-19T04:14:14;72931.72;;;5.67
74043;BMP280;62384;53.600;10.040;2023-04-19T04:16:39;72904.81;;;5.66
74043;BMP280;62384;53.600;10.040;2023-04-19T04:19:05;72953.47;;;5.57
74043;BMP280;62384;53.600;10.040;2023-04-19T04:21:30;72933.59;;;5.61
74043;BMP280;62384;53.600;10.040;2023-04-19T04:23:58;72867.09;;;5.60
74043;BMP280;62384;53.600;10.040;2023-04-19T04:26:26;72646.41;;;5.69
74043;BMP280;62384;53.600;10.040;2023-04-19T04:28:54;72919.44;;;5.50
74043;BMP280;62384;53.600;10.040;2023-04-19T04:31:20;72789.78;;;5.52
74043;BMP280;62384;53.600;10.040;2023-04-19T04:33:45;72765.50;;;5.40
74043;BMP280;62384;53.600;10.040;2023-04-19T04:36:10;73004.47;;;5.41
74043;BMP280;62384;53.600;10.040;2023-04-19T04:38:36;72853.69;;;5.55
74043;BMP280;62384;53.600;10.040;2023-04-19T04:41:01;73042.16;;;5.35
74043;BMP280;62384;53.600;10.040;2023-04-19T04:43:27;73419.81;;;5.79
74043;BMP280;62384;53.600;10.040;2023-04-19T04:45:56;73398.66;;;5.88
74043;BMP280;62384;53.600;10.040;2023-04-19T04:48:22;73613.94;;;5.97
74043;BMP280;62384;53.600;10.040;2023-04-19T04:50:48;73616.75;;;5.71
74043;BMP280;62384;53.600;10.040;2023-04-19T04:53:13;73663.09;;;6.08
74043;BMP280;62384;53.600;10.040;2023-04-19T04:55:39;73867.78;;;5.95
74043;BMP280;62384;53.600;10.040;2023-04-19T04:58:04;73947.28;;;6.19
74043;BMP280;62384;53.600;10.040;2023-04-19T05:00:30;73901.53;;;5.94
74043;BMP280;62384;53.600;10.040;2023-04-19T05:02:56;74028.41;;;6.06
74043;BMP280;62384;53.600;10.040;2023-04-19T05:05:21;74059.19;;;6.27
74043;BMP280;62384;53.600;10.040;2023-04-19T05:07:47;74125.84;;;6.37
74043;BMP280;62384;53.600;10.040;2023-04-19T05:10:20;74276.66;;;6.33
74043;BMP280;62384;53.600;10.040;2023-04-19T05:12:45;74211.59;;;6.31
74043;BMP280;62384;53.600;10.040;2023-04-19T05:15:13;74321.13;;;6.25
74043;BMP280;62384;53.600;10.040;2023-04-19T05:17:38;74377.69;;;6.43
74043;BMP280;62384;53.600;10.040;2023-04-19T05:20:04;74517.03;;;6.40
74043;BMP280;62384;53.600;10.040;2023-04-19T05:22:30;74506.09;;;6.58
74043;BMP280;62384;53.600;10.040;2023-04-19T05:24:55;74622.22;;;6.32
74043;BMP280;62384;53.600;10.040;2023-04-19T05:27:23;74605.25;;;6.31
74043;BMP280;62384;53.600;10.040;2023-04-19T05:29:49;74704.00;;;6.53
74043;BMP280;62384;53.600;10.040;2023-04-19T05:32:15;74709.63;;;6.28
74043;BMP280;62384;53.600;10.040;2023-04-19T05:34:40;74682.88;;;6.46
74043;BMP280;62384;53.600;10.040;2023-04-19T05:37:07;74631.91;;;6.50
74043;BMP280;62384;53.600;10.040;2023-04-19T05:39:32;74760.31;;;6.73
74043;BMP280;62384;53.600;10.040;2023-04-19T05:41:58;74784.22;;;6.59
74043;BMP280;62384;53.600;10.040;2023-04-19T05:44:23;74987.84;;;6.82
74043;BMP280;62384;53.600;10.040;2023-04-19T05:46:48;75093.88;;;6.71
74043;BMP280;62384;53.600;10.040;2023-04-19T05:49:13;75192.25;;;6.57
74043;BMP280;62384;53.600;10.040;2023-04-19T05:51:39;75185.47;;;6.94
74043;BMP280;62384;53.600;10.040;2023-04-19T05:54:04;75443.75;;;6.88
74043;BMP280;62384;53.600;10.040;2023-04-19T05:56:29;75584.63;;;7.03
74043;BMP280;62384;53.600;10.040;2023-04-19T05:58:55;75690.81;;;7.26
74043;BMP280;62384;53.600;10.040;2023-04-19T06:01:22;75710.84;;;7.00
74043;BMP280;62384;53.600;10.040;2023-04-19T06:03:48;75817.03;;;7.35
74043;BMP280;62384;53.600;10.040;2023-04-19T06:06:18;75901.59;;;7.21
74043;BMP280;62384;53.600;10.040;2023-04-19T06:08:43;75918.50;;;7.26
74043;BMP280;62384;53.600;10.040;2023-04-19T06:11:08;75966.66;;;7.38
74043;BMP280;62384;53.600;10.040;2023-04-19T06:13:34;76067.34;;;7.76
74043;BMP280;62384;53.600;10.040;2023-04-19T06:15:59;76079.31;;;7.79
74043;BMP280;62384;53.600;10.040;2023-04-19T06:18:25;76107.84;;;7.90
74043;BMP280;62384;53.600;10.040;2023-04-19T06:20:51;76095.91;;;7.75
74043;BMP280;62384;53.600;10.040;2023-04-19T06:23:17;76136.28;;;7.94
74043;BMP280;62384;53.600;10.040;2023-04-19T06:25:43;76159.69;;;8.08
74043;BMP280;62384;53.600;10.040;2023-04-19T06:28:09;76171.84;;;8.26
74043;BMP280;62384;53.600;10.040;2023-04-19T06:30:35;76171.34;;;8.14
74043;BMP280;62384;53.600;10.040;2023-04-19T06:33:00;76208.72;;;8.35
74043;BMP280;62384;53.600;10.040;2023-04-19T06:35:25;76201.97;;;8.24
74043;BMP280;62384;53.600;10.040;2023-04-19T06:37:51;76201.03;;;8.26
74043;BMP280;62384;53.600;10.040;2023-04-19T06:40:16;76248.03;;;8.60
74043;BMP280;62384;53.600;10.040;2023-04-19T06:42:42;76234.28;;;8.66
74043;BMP280;62384;53.600;10.040;2023-04-19T06:45:07;76288.66;;;8.82
74043;BMP280;62384;53.600;10.040;2023-04-19T06:47:34;76301.81;;;8.86
74043;BMP280;62384;53.600;10.040;2023-04-19T06:49:59;76284.72;;;8.85
74043;BMP280;62384;53.600;10.040;2023-04-19T06:52:25;76317.78;;;9.23
74043;BMP280;62384;53.600;10.040;2023-04-19T06:54:51;76367.25;;;9.36
74043;BMP280;62384;53.600;10.040;2023-04-19T06:57:16;76373.56;;;9.42
74043;BMP280;62384;53.600;10.040;2023-04-19T06:59:43;76373.00;;;9.42
74043;BMP280;62384;53.600;10.040;2023-04-19T07:02:08;76408.09;;;9.61
74043;BMP280;62384;53.600;10.040;2023-04-19T07:04:33;76411.00;;;9.63
74043;BMP280;62384;53.600;10.040;2023-04-19T07:06:59;76391.88;;;9.70
74043;BMP280;62384;53.600;10.040;2023-04-19T07:09:25;76391.53;;;9.72
74043;BMP280;62384;53.600;10.040;2023-04-19T07:11:50;76452.09;;;9.71
74043;BMP280;62384;53.600;10.040;2023-04-19T07:14:16;76442.97;;;10.07
74043;BMP280;62384;53.600;10.040;2023-04-19T07:16:43;76428.44;;;9.81
74043;BMP280;62384;53.600;10.040;2023-04-19T07:19:09;76456.16;;;10.12
74043;BMP280;62384;53.600;10.040;2023-04-19T07:21:35;76463.25;;;10.02
74043;BMP280;62384;53.600;10.040;2023-04-19T07:24:03;76504.66;;;10.38
74043;BMP280;62384;53.600;10.040;2023-04-19T07:26:28;76493.19;;;10.28
74043;BMP280;62384;53.600;10.040;2023-04-19T07:28:53;76539.91;;;10.64
74043;BMP280;62384;53.600;10.040;2023-04-19T07:31:21;76542.22;;;10.66
74043;BMP280;62384;53.600;10.040;2023-04-19T07:33:49;76518.66;;;10.71
74043;BMP280;62384;53.600;10.040;2023-04-19T07:36:14;76549.94;;;11.01
74043;BMP280;62384;53.600;10.040;2023-04-19T07:38:39;76548.81;;;11.00
74043;BMP280;62384;53.600;10.040;2023-04-19T07:41:05;76587.16;;;11.13
74043;BMP280;62384;53.600;10.040;2023-04-19T07:43:30;76588.81;;;11.07
74043;BMP280;62384;53.600;10.040;2023-04-19T07:45:55;76592.75;;;11.22
74043;BMP280;62384;53.600;10.040;2023-04-19T07:48:21;76647.09;;;11.54
74043;BMP280;62384;53.600;10.040;2023-04-19T07:50:46;76621.63;;;11.36
74043;BMP280;62384;53.600;10.040;2023-04-19T07:53:12;76633.06;;;11.39
74043;BMP280;62384;53.600;10.040;2023-04-19T07:55:38;76691.19;;;11.64
74043;BMP280;62384;53.600;10.040;2023-04-19T07:58:03;76627.38;;;11.41
74043;BMP280;62384;53.600;10.040;2023-04-19T08:00:28;76661.81;;;11.83
74043;BMP280;62384;53.600;10.040;2023-04-19T08:02:55;76700.63;;;12.00
74043;BMP280;62384;53.600;10.040;2023-04-19T08:05:21;76664.50;;;11.83
74043;BMP280;62384;53.600;10.040;2023-04-19T08:07:47;76660.38;;;11.72
74043;BMP280;62384;53.600;10.040;2023-04-19T08:10:12;76674.47;;;11.94
74043;BMP280;62384;53.600;10.040;2023-04-19T08:12:38;76706.81;;;12.10
74043;BMP280;62384;53.600;10.040;2023-04-19T08:15:05;76779.09;;;12.39
74043;BMP280;62384;53.600;10.040;2023-04-19T08:17:31;76770.53;;;12.38
74043;BMP280;62384;53.600;10.040;2023-04-19T08:19:57;76767.00;;;12.54
74043;BMP280;62384;53.600;10.040;2023-04-19T08:22:22;76805.56;;;12.80
74043;BMP280;62384;53.600;10.040;2023-04-19T08:24:48;76848.84;;;13.00
74043;BMP280;62384;53.600;10.040;2023-04-19T08:27:29;76832.34;;;12.94
74043;BMP280;62384;53.600;10.040;2023-04-19T08:29:55;76853.16;;;13.20
74043;BMP280;62384;53.600;10.040;2023-04-19T08:32:20;76851.97;;;12.86
74043;BMP280;62384;53.600;10.040;2023-04-19T08:34:46;76867.66;;;13.21
74043;BMP280;62384;53.600;10.040;2023-04-19T08:37:11;76883.19;;;13.27
74043;BMP280;62384;53.600;10.040;2023-04-19T08:39:36;76856.63;;;13.23
74043;BMP280;62384;53.600;10.040;2023-04-19T08:42:07;76888.00;;;13.34
74043;BMP280;62384;53.600;10.040;2023-04-19T08:44:34;76940.66;;;13.49
74043;BMP280;62384;53.600;10.040;2023-04-19T08:46:59;76953.63;;;13.77
74043;BMP280;62384;53.600;10.040;2023-04-19T08:49:28;76951.56;;;13.85
74043;BMP280;62384;53.600;10.040;2023-04-19T08:51:56;76967.94;;;14.08
74043;BMP280;62384;53.600;10.040;2023-04-19T08:54:22;76992.31;;;14.18
74043;BMP280;62384;53.600;10.040;2023-04-19T08:56:47;76948.84;;;13.78
74043;BMP280;62384;53.600;10.040;2023-04-19T08:59:13;76974.81;;;14.00
74043;BMP280;62384;53.600;10.040;2023-04-19T09:01:39;77025.97;;;14.17
74043;BMP280;62384;53.600;10.040;2023-04-19T09:04:05;77041.13;;;14.58
74043;BMP280;62384;53.600;10.040;2023-04-19T09:06:37;77048.19;;;14.60
74043;BMP280;62384;53.600;10.040;2023-04-19T09:09:14;77080.47;;;14.81
74043;BMP280;62384;53.600;10.040;2023-04-19T09:11:40;77092.94;;;14.89
74043;BMP280;62384;53.600;10.040;2023-04-19T09:14:16;77042.59;;;14.50
74043;BMP280;62384;53.600;10.040;2023-04-19T09:16:43;77103.31;;;14.91
74043;BMP280;62384;53.600;10.040;2023-04-19T09:19:08;77041.50;;;14.63
74043;BMP280;62384;53.600;10.040;2023-04-19T09:21:34;77055.00;;;14.44
74043;BMP280;62384;53.600;10.040;2023-04-19T09:24:00;77103.94;;;15.06
74043;BMP280;62384;53.600;10.040;2023-04-19T09:26:26;77081.09;;;14.88
74043;BMP280;62384;53.600;10.040;2023-04-19T09:29:04;77145.84;;;15.33
74043;BMP280;62384;53.600;10.040;2023-04-19T09:31:31;77144.84;;;15.27
74043;BMP280;62384;53.600;10.040;2023-04-19T09:33:57;77159.25;;;15.40
74043;BMP280;62384;53.600;10.040;2023-04-19T09:36:35;77192.94;;;15.79
74043;BMP280;62384;53.600;10.040;2023-04-19T09:39:01;77176.25;;;15.71
74043;BMP280;62384;53.600;10.040;2023-04-19T09:41:26;77178.69;;;15.62
74043;BMP280;62384;53.600;10.040;2023-04-19T09:43:52;77224.53;;;16.04
74043;BMP280;62384;53.600;10.040;2023-04-19T09:46:35;77474.50;;;18.08
74043;BMP280;62384;53.600;10.040;2023-04-19T09:49:17;77835.66;;;20.77
74043;BMP280;62384;53.600;10.040;2023-04-19T09:51:52;77861.72;;;20.93
74043;BMP280;62384;53.600;10.040;2023-04-19T09:54:19;77798.03;;;20.51
74043;BMP280;62384;53.600;10.040;2023-04-19T09:56:47;77608.53;;;19.03
74043;BMP280;62384;53.600;10.040;2023-04-19T09:59:14;77546.09;;;18.70
74043;BMP280;62384;53.600;10.040;2023-04-19T10:05:37;78133.06;;;22.88
74043;BMP280;62384;53.600;10.040;2023-04-19T10:08:05;78156.38;;;23.18
74043;BMP280;62384;53.600;10.040;2023-04-19T10:10:31;78295.41;;;24.14
74043;BMP280;62384;53.600;10.040;2023-04-19T10:12:58;78351.50;;;24.30
74043;BMP280;62384;53.600;10.040;2023-04-19T10:15:26;78398.88;;;24.92
74043;BMP280;62384;53.600;10.040;2023-04-19T10:17:52;78316.22;;;24.40
74043;BMP280;62384;53.600;10.040;2023-04-19T10:20:31;78338.59;;;24.64
74043;BMP280;62384;53.600;10.040;2023-04-19T10:22:58;78255.28;;;24.25
74043;BMP280;62384;53.600;10.040;2023-04-19T10:25:28;78177.31;;;23.22
74043;BMP280;62384;53.600;10.040;2023-04-19T10:27:54;78380.00;;;24.95
74043;BMP280;62384;53.600;10.040;2023-04-19T10:30:24;78364.78;;;24.72
74043;BMP280;62384;53.600;10.040;2023-04-19T10:32:59;78408.00;;;24.98
74043;BMP280;62384;53.600;10.040;2023-04-19T10:35:36;78295.63;;;24.34
74043;BMP280;62384;53.600;10.040;2023-04-19T10:38:13;78479.50;;;25.62
74043;BMP280;62384;53.600;10.040;2023-04-19T10:40:56;78405.63;;;25.03
74043;BMP280;62384;53.600;10.040;2023-04-19T10:43:25;78492.44;;;25.76
74043;BMP280;62384;53.600;10.040;2023-04-19T10:45:51;78445.16;;;25.47
74043;BMP280;62384;53.600;10.040;2023-04-19T10:53:42;78355.47;;;24.71
74043;BMP280;62384;53.600;10.040;2023-04-19T10:56:08;78357.84;;;24.66
74043;BMP280;62384;53.600;10.040;2023-04-19T11:01:54;78263.06;;;23.96
74043;BMP280;62384;53.600;10.040;2023-04-19T11:12:05;78310.03;;;24.60
74043;BMP280;62384;53.600;10.040;2023-04-19T11:14:36;78401.34;;;25.04
74043;BMP280;62384;53.600;10.040;2023-04-19T11:17:19;78150.03;;;23.36
74043;BMP280;62384;53.600;10.040;2023-04-19T11:20:01;78317.56;;;24.67
74043;BMP280;62384;53.600;10.040;2023-04-19T11:22:45;78238.28;;;23.84
74043;BMP280;62384;53.600;10.040;2023-04-19T11:25:16;78225.38;;;23.94
74043;BMP280;62384;53.600;10.040;2023-04-19T11:27:49;78183.63;;;23.65
74043;BMP280;62384;53.600;10.040;2023-04-19T11:30:35;78320.03;;;24.48
74043;BMP280;62384;53.600;10.040;2023-04-19T11:33:00;78124.22;;;23.32
74043;BMP280;62384;53.600;10.040;2023-04-19T11:35:27;78243.06;;;24.21
74043;BMP280;62384;53.600;10.040;2023-04-19T11:37:57;78168.81;;;23.71
74043;BMP280;62384;53.600;10.040;2023-04-19T11:40:23;78075.47;;;23.11
74043;BMP280;62384;53.600;10.040;2023-04-19T11:43:02;77931.16;;;21.98
74043;BMP280;62384;53.600;10.040;2023-04-19T11:45:31;77845.66;;;21.40
74043;BMP280;62384;53.600;10.040;2023-04-19T11:47:56;77843.97;;;21.24
74043;BMP280;62384;53.600;10.040;2023-04-19T11:50:39;77696.13;;;20.12
74043;BMP280;62384;53.600;10.040;2023-04-19T11:53:16;77786.75;;;20.74
74043;BMP280;62384;53.600;10.040;2023-04-19T11:55:46;77848.00;;;21.35
74043;BMP280;62384;53.600;10.040;2023-04-19T11:58:30;78030.94;;;22.65
74043;BMP280;62384;53.600;10.040;2023-04-19T12:03:46;77968.16;;;22.30
74043;BMP280;62384;53.600;10.040;2023-04-19T12:06:21;77907.03;;;21.79
74043;BMP280;62384;53.600;10.040;2023-04-19T12:08:49;77826.38;;;21.21
74043;BMP280;62384;53.600;10.040;2023-04-19T12:11:17;77731.28;;;20.71
74043;BMP280;62384;53.600;10.040;2023-04-19T12:14:09;77757.09;;;20.46
74043;BMP280;62384;53.600;10.040;2023-04-19T12:16:34;77728.81;;;20.59
74043;BMP280;62384;53.600;10.040;2023-04-19T12:19:10;77703.06;;;20.25
74043;BMP280;62384;53.600;10.040;2023-04-19T12:21:39;77695.13;;;20.14
74043;BMP280;62384;53.600;10.040;2023-04-19T12:24:04;77658.75;;;19.82
74043;BMP280;62384;53.600;10.040;2023-04-19T12:26:30;77582.03;;;19.46
74043;BMP280;62384;53.600;10.040;2023-04-19T12:28:57;77618.31;;;19.47
74043;BMP280;62384;53.600;10.040;2023-04-19T12:31:22;77556.44;;;19.21
74043;BMP280;62384;53.600;10.040;2023-04-19T12:33:48;77626.75;;;19.66
74043;BMP280;62384;53.600;10.040;2023-04-19T12:36:13;77610.19;;;19.54
74043;BMP280;62384;53.600;10.040;2023-04-19T12:38:39;77710.34;;;20.36
74043;BMP280;62384;53.600;10.040;2023-04-19T12:41:04;77734.91;;;20.32
74043;BMP280;62384;53.600;10.040;2023-04-19T12:43:30;77780.28;;;20.90
74043;BMP280;62384;53.600;10.040;2023-04-19T12:45:56;77807.09;;;21.09
74043;BMP280;62384;53.600;10.040;2023-04-19T12:48:22;77802.06;;;21.07
74043;BMP280;62384;53.600;10.040;2023-04-19T12:50:47;77765.22;;;20.91
74043;BMP280;62384;53.600;10.040;2023-04-19T12:53:13;77826.72;;;21.33
74043;BMP280;62384;53.600;10.040;2023-04-19T12:55:41;77968.22;;;22.16
74043;BMP280;62384;53.600;10.040;2023-04-19T12:58:07;77969.13;;;22.28
74043;BMP280;62384;53.600;10.040;2023-04-19T13:00:32;77965.66;;;22.25
74043;BMP280;62384;53.600;10.040;2023-04-19T13:02:57;77874.50;;;21.72
74043;BMP280;62384;53.600;10.040;2023-04-19T13:05:23;77999.44;;;22.80
74043;BMP280;62384;53.600;10.040;2023-04-19T13:07:56;77936.25;;;22.16
74043;BMP280;62384;53.600;10.040;2023-04-19T13:10:21;77863.59;;;21.86
74043;BMP280;62384;53.600;10.040;2023-04-19T13:12:46;77885.94;;;21.72
74043;BMP280;62384;53.600;10.040;2023-04-19T13:15:12;77789.06;;;21.14
74043;BMP280;62384;53.600;10.040;2023-04-19T13:17:37;77766.34;;;20.92
74043;BMP280;62384;53.600;10.040;2023-04-19T13:20:03;77782.91;;;21.11
74043;BMP280;62384;53.600;10.040;2023-04-19T13:22:30;77883.59;;;21.77
74043;BMP280;62384;53.600;10.040;2023-04-19T13:24:55;77905.03;;;21.89
74043;BMP280;62384;53.600;10.040;2023-04-19T13:27:21;77789.56;;;20.98
74043;BMP280;62384;53.600;10.040;2023-04-19T13:29:47;77756.31;;;20.88
74043;BMP280;62384;53.600;10.040;2023-04-19T13:32:12;77786.75;;;21.12
74043;BMP280;62384;53.600;10.040;2023-04-19T13:34:37;77689.50;;;20.32
74043;BMP280;62384;53.600;10.040;2023-04-19T13:37:04;77783.25;;;21.16
74043;BMP280;62384;53.600;10.040;2023-04-19T13:39:29;77771.13;;;21.06
74043;BMP280;62384;53.600;10.040;2023-04-19T13:41:55;77780.91;;;21.21
74043;BMP280;62384;53.600;10.040;2023-04-19T13:44:20;77762.94;;;20.82
74043;BMP280;62384;53.600;10.040;2023-04-19T13:46:46;77697.97;;;20.37
74043;BMP280;62384;53.600;10.040;2023-04-19T13:49:11;77652.09;;;20.09
74043;BMP280;62384;53.600;10.040;2023-04-19T13:51:41;77720.13;;;20.52
74043;BMP280;62384;53.600;10.040;2023-04-19T13:54:06;77597.63;;;19.59
74043;BMP280;62384;53.600;10.040;2023-04-19T13:56:31;77661.56;;;20.13
74043;BMP280;62384;53.600;10.040;2023-04-19T13:58:58;77630.69;;;19.98
74043;BMP280;62384;53.600;10.040;2023-04-19T14:01:23;77596.50;;;19.51
74043;BMP280;62384;53.600;10.040;2023-04-19T14:03:48;77568.19;;;19.34
74043;BMP280;62384;53.600;10.040;2023-04-19T14:06:14;77446.91;;;18.42
74043;BMP280;62384;53.600;10.040;2023-04-19T14:08:39;77495.00;;;18.94
74043;BMP280;62384;53.600;10.040;2023-04-19T14:11:04;77548.81;;;18.91
74043;BMP280;62384;53.600;10.040;2023-04-19T14:13:30;77557.78;;;19.25
74043;BMP280;62384;53.600;10.040;2023-04-19T14:15:56;77490.97;;;18.76
74043;BMP280;62384;53.600;10.040;2023-04-19T14:18:21;77519.47;;;19.03
74043;BMP280;62384;53.600;10.040;2023-04-19T14:20:47;77469.44;;;18.48
74043;BMP280;62384;53.600;10.040;2023-04-19T14:23:12;77519.03;;;19.12
74043;BMP280;62384;53.600;10.040;2023-04-19T14:25:38;77599.09;;;19.79